createdAt,value
2023-04-07T00:00:04.538Z,2.75
2023-04-07T00:02:38.640Z,3.58
2023-04-07T00:05:05.823Z,2.83
2023-04-07T00:07:35.314Z,3.13
2023-04-07T00:10:07.373Z,3.63
2023-04-07T00:12:34.355Z,2.90
2023-04-07T00:15:00.860Z,2.55
2023-04-07T00:17:27.501Z,2.55
2023-04-07T00:19:54.086Z,2.72
2023-04-07T00:22:20.672Z,2.70
2023-04-07T00:24:47.180Z,2.95
2023-04-07T00:27:13.716Z,2.70
2023-04-07T00:29:40.475Z,2.75
2023-04-07T00:32:07.358Z,2.60
2023-04-07T00:34:34.004Z,2.85
2023-04-07T00:37:00.661Z,1.98
2023-04-07T00:39:27.621Z,3.08
2023-04-07T00:41:54.299Z,3.22
2023-04-07T00:44:21.511Z,2.72
2023-04-07T00:46:48.786Z,2.92
2023-04-07T00:49:17.934Z,2.53
2023-04-07T00:51:49.037Z,3.28
2023-04-07T00:54:26.402Z,3.08
2023-04-07T00:56:53.797Z,2.95
2023-04-07T00:59:22.051Z,3.17
2023-04-07T01:02:10.894Z,3.28
2023-04-07T01:04:41.041Z,3.42
2023-04-07T01:07:21.189Z,3.38
2023-04-07T01:10:04.892Z,3.30
2023-04-07T01:12:57.215Z,2.95
2023-04-07T01:15:28.298Z,3.38
2023-04-07T01:18:07.586Z,3.63
2023-04-07T01:20:36.177Z,3.20
2023-04-07T01:23:07.054Z,3.40
2023-04-07T01:26:01.915Z,2.97
2023-04-07T01:31:12.938Z,2.92
2023-04-07T01:33:43.862Z,2.90
2023-04-07T01:36:12.057Z,4.82
2023-04-07T01:38:39.260Z,3.85
2023-04-07T01:41:07.101Z,3.53
2023-04-07T01:43:34.137Z,3.65
2023-04-07T01:46:03.076Z,4.20
2023-04-07T01:48:30.855Z,4.32
2023-04-07T01:50:58.936Z,4.28
2023-04-07T01:53:26.180Z,4.63
2023-04-07T01:55:54.488Z,4.13
2023-04-07T01:58:21.286Z,4.47
2023-04-07T02:00:49.447Z,3.97
2023-04-07T02:03:23.761Z,4.13
2023-04-07T02:05:57.642Z,4.32
2023-04-07T02:08:30.455Z,4.10
2023-04-07T02:11:00.911Z,4.63
2023-04-07T02:13:33.859Z,3.70
2023-04-07T02:16:02.437Z,4.00
2023-04-07T02:18:32.199Z,4.05
2023-04-07T02:21:01.278Z,3.83
2023-04-07T02:23:28.186Z,3.95
2023-04-07T02:25:58.072Z,3.85
2023-04-07T02:28:24.739Z,4.85
2023-04-07T02:30:51.584Z,4.47
2023-04-07T02:33:18.382Z,4.28
2023-04-07T02:35:45.393Z,4.30
2023-04-07T02:38:12.169Z,3.92
2023-04-07T02:40:38.876Z,4.18
2023-04-07T02:43:05.860Z,4.65
2023-04-07T02:45:32.635Z,3.88
2023-04-07T02:47:59.340Z,4.30
2023-04-07T02:50:26.246Z,3.25
2023-04-07T02:52:52.908Z,4.15
2023-04-07T02:55:19.742Z,3.70
2023-04-07T02:57:46.336Z,3.85
2023-04-07T03:00:25.530Z,3.72
2023-04-07T03:03:07.500Z,3.45
2023-04-07T03:05:37.467Z,3.85
2023-04-07T03:08:05.741Z,3.75
2023-04-07T03:10:32.488Z,3.17
2023-04-07T03:12:59.109Z,3.42
2023-04-07T03:15:26.116Z,4.00
2023-04-07T03:17:52.843Z,3.50
2023-04-07T03:20:20.697Z,3.47
2023-04-07T03:22:47.472Z,3.53
2023-04-07T03:25:22.830Z,3.58
2023-04-07T03:27:51.102Z,2.97
2023-04-07T03:30:18.484Z,2.92
2023-04-07T03:32:46.128Z,3.78
2023-04-07T03:35:13.356Z,3.72
2023-04-07T03:37:40.048Z,3.22
2023-04-07T03:40:12.578Z,3.20
2023-04-07T03:42:39.284Z,3.60
2023-04-07T03:45:08.237Z,3.70
2023-04-07T03:47:37.644Z,3.60
2023-04-07T03:50:06.219Z,3.88
2023-04-07T03:52:39.036Z,3.08
2023-04-07T03:55:14.405Z,2.88
2023-04-07T03:57:41.811Z,3.78
2023-04-07T04:00:10.446Z,3.05
2023-04-07T04:02:43.277Z,2.88
2023-04-07T04:05:13.640Z,3.88
2023-04-07T04:07:40.292Z,3.60
2023-04-07T04:10:08.348Z,3.35
2023-04-07T04:12:41.579Z,3.78
2023-04-07T04:15:11.013Z,3.75
2023-04-07T04:17:38.785Z,3.08
2023-04-07T04:20:06.928Z,3.05
2023-04-07T04:22:46.475Z,4.00
2023-04-07T04:25:13.183Z,3.15
2023-04-07T04:27:44.401Z,3.35
2023-04-07T04:30:17.306Z,2.75
2023-04-07T04:32:51.381Z,2.85
2023-04-07T04:35:23.096Z,3.40
2023-04-07T04:38:02.282Z,3.17
2023-04-07T04:40:28.977Z,3.30
2023-04-07T04:42:57.334Z,2.72
2023-04-07T04:45:25.667Z,3.10
2023-04-07T04:47:52.299Z,2.50
2023-04-07T04:50:18.973Z,2.75
2023-04-07T04:52:46.876Z,3.17
2023-04-07T04:55:19.613Z,2.70
2023-04-07T04:57:46.816Z,3.13
2023-04-07T05:00:18.421Z,3.22
2023-04-07T05:02:48.224Z,2.55
2023-04-07T05:05:15.569Z,3.53
2023-04-07T05:07:43.262Z,3.15
2023-04-07T05:10:12.764Z,4.35
2023-04-07T05:12:46.243Z,3.47
2023-04-07T05:15:12.816Z,3.80
2023-04-07T05:17:40.876Z,3.20
2023-04-07T05:20:11.974Z,4.05
2023-04-07T05:22:41.395Z,3.50
2023-04-07T05:25:11.805Z,3.25
2023-04-07T05:27:40.980Z,4.30
2023-04-07T05:30:13.082Z,3.40
2023-04-07T05:32:40.072Z,3.78
2023-04-07T05:35:17.605Z,4.78
2023-04-07T05:37:51.291Z,3.90
2023-04-07T05:40:18.241Z,3.35
2023-04-07T05:42:45.666Z,3.95
2023-04-07T05:45:13.112Z,3.58
2023-04-07T05:47:42.825Z,3.88
2023-04-07T05:50:14.013Z,3.75
2023-04-07T05:52:42.613Z,4.00
2023-04-07T05:55:19.378Z,3.97
2023-04-07T05:57:47.597Z,3.95
2023-04-07T06:55:16.786Z,5.18
2023-04-07T06:58:00.930Z,4.43
2023-04-07T07:00:39.131Z,4.13
2023-04-07T07:03:45.276Z,4.50
2023-04-07T07:19:50.537Z,4.03
2023-04-07T07:23:21.843Z,4.15
2023-04-07T07:26:11.353Z,3.97
2023-04-07T07:29:31.287Z,4.90
2023-04-07T07:32:01.371Z,4.45
2023-04-07T07:34:28.038Z,3.90
2023-04-07T07:36:54.666Z,4.82
